Time;durP1;ratioP1;P1;durP2;ratioP2;P2;SDS_P1;SDS_P2;PMS_P1;PMS_P2;Temp;Humidity;BMP_temperature;BMP_pressure;BME280_temperature;BME280_humidity;BME280_pressure;Samples;Min_cycle;Max_cycle;Signal;HPM_P1;HPM_P2
2022/05/30 00:08:33;;;;;;;6.93;2.15;;;13.70;66.50;;;;;;5071787;28;20087;-74
2022/05/30 00:11:04;;;;;;;6.40;2.22;;;13.80;67.00;;;;;;5054893;28;20515;-74
2022/05/30 00:13:31;;;;;;;5.43;1.85;;;13.80;66.30;;;;;;5072021;28;20037;-74
2022/05/30 00:15:57;;;;;;;6.90;2.33;;;13.70;66.30;;;;;;5071721;28;20037;-74
2022/05/30 00:18:22;;;;;;;7.88;2.55;;;13.70;66.30;;;;;;5071773;28;20035;-74
2022/05/30 00:20:49;;;;;;;6.50;2.33;;;13.70;66.70;;;;;;5071621;28;20059;-74
2022/05/30 00:23:14;;;;;;;5.22;2.17;;;13.60;67.00;;;;;;5071605;28;20025;-74
2022/05/30 00:25:43;;;;;;;5.57;3.00;;;13.70;67.20;;;;;;5077749;28;20044;-74
2022/05/30 00:28:09;;;;;;;8.82;2.33;;;13.70;67.20;;;;;;5091499;28;20056;-74
2022/05/30 00:30:37;;;;;;;8.40;2.10;;;13.70;67.30;;;;;;5091620;28;20070;-74
2022/05/30 00:33:03;;;;;;;6.43;2.10;;;13.70;67.40;;;;;;5091580;28;20026;-74
2022/05/30 00:35:29;;;;;;;5.90;2.05;;;13.70;67.50;;;;;;5091587;28;20025;-74
2022/05/30 00:37:56;;;;;;;5.30;1.88;;;13.70;67.50;;;;;;5091528;28;20020;-74
2022/05/30 00:40:22;;;;;;;4.47;2.00;;;13.60;68.30;;;;;;5091618;28;20020;-74
2022/05/30 00:42:47;;;;;;;5.95;2.10;;;13.50;67.90;;;;;;5092978;28;20048;-74
2022/05/30 00:45:13;;;;;;;4.03;2.00;;;13.50;68.20;;;;;;5092169;28;20027;-74
2022/05/30 00:47:39;;;;;;;6.32;2.20;;;13.50;68.20;;;;;;5093297;28;20047;-74
2022/05/30 00:50:06;;;;;;;5.43;1.88;;;13.50;68.20;;;;;;5092900;28;20073;-74
2022/05/30 00:52:37;;;;;;;5.90;1.90;;;13.50;68.30;;;;;;5092740;28;20337;-74
2022/05/30 00:55:18;;;;;;;7.80;2.28;;;13.50;68.30;;;;;;5093180;28;20017;-74
2022/05/30 00:57:46;;;;;;;4.80;2.60;;;13.40;68.60;;;;;;5093130;28;20112;-74
2022/05/30 01:00:19;;;;;;;7.65;2.15;;;13.40;68.60;;;;;;5093052;28;20036;-74
2022/05/30 01:02:45;;;;;;;3.70;1.85;;;13.40;68.60;;;;;;5093116;28;20024;-74
2022/05/30 01:08:00;;;;;;;5.43;2.30;;;13.40;68.70;;;;;;5093180;28;20067;-74
2022/05/30 01:10:26;;;;;;;4.70;2.25;;;13.40;68.70;;;;;;5092965;28;20084;-74
2022/05/30 01:12:56;;;;;;;5.57;2.10;;;13.40;68.80;;;;;;5092954;28;20021;-74
2022/05/30 01:15:28;;;;;;;6.72;2.50;;;13.40;68.90;;;;;;5093109;28;20108;-74
2022/05/30 01:18:03;;;;;;;4.53;2.22;;;13.40;69.10;;;;;;5092957;28;20352;-74
2022/05/30 01:20:57;;;;;;;6.13;2.30;;;13.40;69.10;;;;;;5092884;28;20496;-74
2022/05/30 01:23:53;;;;;;;6.25;2.30;;;13.40;69.00;;;;;;5091840;28;20158;-74
2022/05/30 01:26:40;;;;;;;5.40;2.20;;;13.40;69.10;;;;;;5092991;28;20051;-74
2022/05/30 01:29:17;;;;;;;9.82;2.55;;;13.40;69.20;;;;;;5092820;28;20056;-74
2022/05/30 01:31:43;;;;;;;6.45;2.50;;;13.30;69.30;;;;;;5092940;28;20020;-74
2022/05/30 01:34:09;;;;;;;5.40;2.45;;;13.30;69.20;;;;;;5092739;28;20024;-74
2022/05/30 01:36:35;;;;;;;7.80;2.50;;;13.20;69.20;;;;;;5092726;28;20025;-74
2022/05/30 01:39:02;;;;;;;5.50;2.20;;;13.20;69.40;;;;;;5092689;28;20036;-74
2022/05/30 01:41:27;;;;;;;7.85;2.83;;;13.20;69.50;;;;;;5092673;28;20088;-74
2022/05/30 01:43:53;;;;;;;5.72;2.45;;;13.20;69.60;;;;;;5092764;28;20028;-74
2022/05/30 01:46:22;;;;;;;5.18;2.50;;;13.20;69.70;;;;;;5092598;28;20092;-74
2022/05/30 01:48:50;;;;;;;7.07;2.78;;;13.20;69.70;;;;;;5092349;28;20027;-73
2022/05/30 01:51:18;;;;;;;6.57;2.58;;;13.00;69.80;;;;;;5092736;28;20088;-74
2022/05/30 01:53:45;;;;;;;6.05;2.70;;;13.10;70.00;;;;;;5092556;28;20021;-74
2022/05/30 01:56:11;;;;;;;7.00;2.50;;;13.10;69.70;;;;;;5092556;28;20076;-74
2022/05/30 01:58:36;;;;;;;7.22;2.63;;;13.10;69.60;;;;;;5092615;28;20032;-74
2022/05/30 02:01:12;;;;;;;5.97;2.33;;;13.10;69.70;;;;;;5092612;28;20101;-74
2022/05/30 02:03:37;;;;;;;4.65;2.45;;;13.10;69.70;;;;;;5092544;28;20032;-74
2022/05/30 02:06:03;;;;;;;6.28;2.88;;;13.10;69.50;;;;;;5095802;28;20035;-74
2022/05/30 02:08:29;;;;;;;6.28;2.47;;;13.10;69.50;;;;;;5096073;28;20028;-74
2022/05/30 02:10:54;;;;;;;6.63;2.25;;;13.10;69.40;;;;;;5095950;28;20052;-74
2022/05/30 02:13:20;;;;;;;7.28;2.65;;;13.10;69.40;;;;;;5095883;28;20096;-74
2022/05/30 02:18:30;;;;;;;4.70;2.50;;;12.80;69.80;;;;;;5096102;28;20043;-74
2022/05/30 02:20:55;;;;;;;3.97;2.53;;;12.80;70.00;;;;;;5095753;28;20048;-74
2022/05/30 02:23:21;;;;;;;7.55;2.67;;;12.90;69.90;;;;;;5095738;28;20021;-74
2022/05/30 02:25:48;;;;;;;6.30;2.55;;;12.80;69.80;;;;;;5095711;28;20047;-74
2022/05/30 02:28:14;;;;;;;11.27;2.20;;;12.70;70.00;;;;;;5095539;28;20084;-74
2022/05/30 02:30:40;;;;;;;7.05;2.40;;;12.60;70.20;;;;;;5095594;28;20032;-74
2022/05/30 02:38:35;;;;;;;6.95;2.17;;;12.40;70.20;;;;;;5095602;28;20036;-74
2022/05/30 02:41:01;;;;;;;3.40;2.10;;;12.30;70.20;;;;;;5095398;28;20032;-74
2022/05/30 02:43:26;;;;;;;6.93;2.03;;;12.30;70.30;;;;;;5095353;28;20091;-74
2022/05/30 02:45:52;;;;;;;7.40;2.47;;;12.30;69.90;;;;;;5095278;28;20111;-74
2022/05/30 02:48:17;;;;;;;5.07;2.13;;;12.30;69.60;;;;;;5095189;28;20036;-74
2022/05/30 02:50:45;;;;;;;6.60;2.20;;;12.30;69.50;;;;;;5094138;28;20040;-74
2022/05/30 02:53:11;;;;;;;5.95;2.72;;;12.30;69.40;;;;;;5095182;28;20076;-74
2022/05/30 02:55:37;;;;;;;3.65;2.22;;;12.20;69.80;;;;;;5095117;28;20024;-73
2022/05/30 02:58:03;;;;;;;6.55;2.40;;;12.10;69.90;;;;;;5094292;28;20016;-74
2022/05/30 03:00:29;;;;;;;5.43;2.22;;;12.10;70.10;;;;;;5095019;28;20024;-74
2022/05/30 03:02:55;;;;;;;5.82;2.78;;;12.00;70.10;;;;;;5094970;28;20040;-74
2022/05/30 03:05:21;;;;;;;7.95;3.15;;;11.90;70.50;;;;;;5094934;28;20017;-74
2022/05/30 03:07:47;;;;;;;5.65;2.30;;;11.90;71.00;;;;;;5094886;28;20550;-74
2022/05/30 03:10:13;;;;;;;7.25;2.72;;;11.80;71.10;;;;;;5093776;28;20017;-74
2022/05/30 03:12:39;;;;;;;7.35;2.97;;;11.90;70.90;;;;;;5094806;28;20025;-74
2022/05/30 03:15:05;;;;;;;5.85;2.47;;;12.00;70.50;;;;;;5094321;28;20025;-74
2022/05/30 03:17:30;;;;;;;6.35;2.80;;;12.00;70.10;;;;;;5094661;28;20487;-74
2022/05/30 03:19:56;;;;;;;5.88;2.72;;;12.00;69.90;;;;;;5094637;28;20032;-74
2022/05/30 03:22:22;;;;;;;4.75;2.22;;;12.10;69.80;;;;;;5093700;28;20036;-74
2022/05/30 03:24:47;;;;;;;6.20;2.45;;;11.90;69.40;;;;;;5094643;28;20033;-74
2022/05/30 03:27:13;;;;;;;5.28;2.67;;;11.70;69.90;;;;;;5094454;28;20033;-74
2022/05/30 03:29:38;;;;;;;7.70;2.55;;;11.60;70.30;;;;;;5094300;28;20043;-74
2022/05/30 03:32:04;;;;;;;4.72;2.47;;;11.60;70.40;;;;;;5094391;28;20035;-74
2022/05/30 03:34:30;;;;;;;5.43;2.22;;;11.70;70.20;;;;;;5094336;28;20048;-74
2022/05/30 03:36:56;;;;;;;8.48;2.92;;;11.70;70.00;;;;;;5094271;28;20032;-74
2022/05/30 03:39:21;;;;;;;5.22;2.30;;;11.70;70.00;;;;;;5094245;28;20032;-73
2022/05/30 03:41:47;;;;;;;5.57;2.70;;;11.60;69.60;;;;;;5094175;28;20033;-74
2022/05/30 03:44:13;;;;;;;6.57;3.17;;;11.40;69.70;;;;;;5094144;28;20025;-74
2022/05/30 03:46:38;;;;;;;6.70;2.63;;;11.40;70.20;;;;;;5094081;28;20027;-74
2022/05/30 03:49:04;;;;;;;6.35;2.53;;;11.50;70.30;;;;;;5093781;28;20445;-74
2022/05/30 03:51:30;;;;;;;7.00;2.80;;;11.40;70.40;;;;;;5094051;28;20080;-74
2022/05/30 03:53:56;;;;;;;5.68;2.90;;;11.40;70.60;;;;;;5094071;28;20028;-74
2022/05/30 03:56:23;;;;;;;5.43;2.55;;;11.30;70.90;;;;;;5093924;28;20104;-74
2022/05/30 03:58:49;;;;;;;9.07;3.15;;;11.40;71.10;;;;;;5093909;28;20028;-74
2022/05/30 04:01:15;;;;;;;6.10;3.05;;;11.40;70.80;;;;;;5093829;28;20034;-74
2022/05/30 04:03:41;;;;;;;7.60;3.08;;;11.50;70.80;;;;;;5093753;28;20021;-74
2022/05/30 04:06:08;;;;;;;7.68;3.35;;;11.40;71.10;;;;;;5093743;28;20024;-74
2022/05/30 04:08:34;;;;;;;6.50;3.03;;;11.40;71.30;;;;;;5093622;28;20040;-74
2022/05/30 04:11:00;;;;;;;4.20;2.97;;;11.50;71.50;;;;;;5093620;28;20028;-74
2022/05/30 04:13:26;;;;;;;6.63;2.97;;;11.50;71.60;;;;;;5093620;28;20016;-74
2022/05/30 04:15:51;;;;;;;6.97;3.20;;;11.60;71.60;;;;;;5093696;28;20084;-74
2022/05/30 04:18:17;;;;;;;5.18;2.70;;;11.60;71.70;;;;;;5093542;28;20044;-74
2022/05/30 04:20:46;;;;;;;7.38;3.20;;;11.60;72.00;;;;;;5093526;28;20035;-74
2022/05/30 04:23:12;;;;;;;4.50;2.97;;;11.40;72.30;;;;;;5093490;28;20111;-74
2022/05/30 04:25:38;;;;;;;9.00;2.97;;;11.50;72.40;;;;;;5093439;28;20028;-74
2022/05/30 04:28:04;;;;;;;7.10;2.92;;;11.50;72.20;;;;;;5092542;28;20032;-74
2022/05/30 04:30:29;;;;;;;5.68;2.72;;;11.60;72.10;;;;;;5093389;28;20033;-73
2022/05/30 04:32:55;;;;;;;9.10;3.00;;;11.60;72.10;;;;;;5093482;28;20021;-74
2022/05/30 04:35:21;;;;;;;6.63;2.88;;;11.60;72.10;;;;;;5093358;28;20085;-74
2022/05/30 04:37:47;;;;;;;5.22;3.05;;;11.50;72.20;;;;;;5093332;28;20032;-74
2022/05/30 04:40:17;;;;;;;7.30;3.50;;;11.40;72.60;;;;;;5093306;28;20036;-74
2022/05/30 04:42:44;;;;;;;6.53;3.22;;;11.40;72.80;;;;;;5093318;28;20024;-74
2022/05/30 04:45:10;;;;;;;5.95;3.15;;;11.50;72.60;;;;;;5093245;28;20040;-74
2022/05/30 04:47:36;;;;;;;6.03;2.92;;;11.50;72.60;;;;;;5093315;28;20032;-74
2022/05/30 04:50:04;;;;;;;7.25;3.17;;;11.60;72.60;;;;;;5091817;28;20056;-74
2022/05/30 04:52:30;;;;;;;5.60;3.30;;;11.40;73.00;;;;;;5093152;28;20082;-74
2022/05/30 04:54:56;;;;;;;6.72;3.50;;;11.40;73.50;;;;;;5093143;28;20043;-73
2022/05/30 04:57:21;;;;;;;5.97;2.95;;;11.50;73.60;;;;;;5093104;28;20024;-74
2022/05/30 04:59:47;;;;;;;6.40;3.85;;;11.60;73.60;;;;;;5093068;28;20111;-74
2022/05/30 05:02:14;;;;;;;8.50;3.53;;;11.70;73.70;;;;;;5093070;28;20039;-74
2022/05/30 05:04:41;;;;;;;8.45;4.03;;;11.80;73.40;;;;;;5093086;28;20043;-74
2022/05/30 05:07:08;;;;;;;7.18;3.65;;;11.90;73.30;;;;;;5092984;28;20025;-74
2022/05/30 05:09:56;;;;;;;7.30;3.72;;;12.10;73.30;;;;;;5092933;28;20033;-74
2022/05/30 05:12:22;;;;;;;10.43;4.18;;;12.20;72.90;;;;;;5092991;28;20070;-74
2022/05/30 05:14:47;;;;;;;8.45;3.85;;;12.20;72.70;;;;;;5092902;28;20029;-74
2022/05/30 05:17:13;;;;;;;10.15;3.85;;;12.30;72.50;;;;;;5092869;28;20024;-74
2022/05/30 05:19:40;;;;;;;6.88;3.50;;;12.30;72.20;;;;;;5092865;28;20024;-74
2022/05/30 05:22:07;;;;;;;8.15;4.10;;;12.40;72.00;;;;;;5092863;28;20028;-74
2022/05/30 05:24:36;;;;;;;9.60;3.67;;;12.40;71.60;;;;;;5092800;28;20024;-74
2022/05/30 05:27:01;;;;;;;6.70;3.40;;;12.50;71.60;;;;;;5091773;28;20021;-74
2022/05/30 05:29:27;;;;;;;10.38;3.00;;;12.50;71.30;;;;;;5092663;28;20070;-74
2022/05/30 05:31:53;;;;;;;6.43;3.03;;;12.60;71.10;;;;;;5092764;28;20029;-74
2022/05/30 05:34:18;;;;;;;6.57;2.92;;;12.60;70.60;;;;;;5092827;28;20029;-74
2022/05/30 05:36:47;;;;;;;5.50;2.58;;;12.60;70.20;;;;;;5092605;28;20024;-74
2022/05/30 05:39:17;;;;;;;7.85;2.58;;;12.60;70.00;;;;;;5094900;28;20471;-74
2022/05/30 05:41:44;;;;;;;10.07;2.53;;;12.60;70.00;;;;;;5096669;28;20028;-74
2022/05/30 05:44:11;;;;;;;4.88;2.47;;;12.70;69.80;;;;;;5096434;28;20027;-74
2022/05/30 05:46:37;;;;;;;6.20;2.40;;;12.70;69.30;;;;;;5095375;28;20058;-74
2022/05/30 05:49:03;;;;;;;5.60;2.28;;;12.80;69.00;;;;;;5096064;28;20033;-74
2022/05/30 05:51:29;;;;;;;7.85;2.40;;;12.70;68.80;;;;;;5096345;28;20031;-74
2022/05/30 05:53:56;;;;;;;9.38;3.05;;;12.70;69.10;;;;;;5096294;28;20028;-73
2022/05/30 05:56:25;;;;;;;7.20;3.47;;;12.70;69.30;;;;;;5096297;28;20013;-74
2022/05/30 05:58:52;;;;;;;4.10;2.17;;;12.70;69.50;;;;;;5096163;28;20020;-73
2022/05/30 06:01:23;;;;;;;4.72;1.85;;;12.80;69.00;;;;;;5096140;28;20040;-74
2022/05/30 06:03:52;;;;;;;2.63;1.60;;;12.80;68.70;;;;;;5096080;28;20032;-74
2022/05/30 06:06:18;;;;;;;6.13;2.22;;;12.80;68.50;;;;;;5096039;28;20055;-74
2022/05/30 06:08:43;;;;;;;3.85;1.90;;;12.80;68.10;;;;;;5095956;28;20033;-74
2022/05/30 06:11:09;;;;;;;5.43;2.30;;;12.90;68.00;;;;;;5095971;28;20074;-74
2022/05/30 06:13:37;;;;;;;7.53;2.70;;;12.90;67.90;;;;;;5095929;28;20100;-74
2022/05/30 06:16:21;;;;;;;4.57;2.03;;;12.90;67.80;;;;;;5095916;28;20036;-74
2022/05/30 06:18:48;;;;;;;5.63;2.15;;;12.90;67.50;;;;;;5095882;28;20084;-74
2022/05/30 06:21:13;;;;;;;4.53;2.15;;;12.90;67.70;;;;;;5095748;28;20032;-74
2022/05/30 06:23:39;;;;;;;5.65;2.55;;;12.90;67.10;;;;;;5095747;28;20058;-73
2022/05/30 06:26:09;;;;;;;6.20;2.30;;;12.90;68.20;;;;;;5095710;28;20037;-74
2022/05/30 06:28:36;;;;;;;3.40;2.13;;;13.00;67.00;;;;;;5095565;28;20031;-74
2022/05/30 06:31:11;;;;;;;4.22;2.10;;;13.00;66.70;;;;;;5095579;28;20024;-73
2022/05/30 06:33:37;;;;;;;4.80;2.00;;;13.10;66.60;;;;;;5095732;28;20103;-73
2022/05/30 06:36:05;;;;;;;6.50;2.80;;;13.10;66.50;;;;;;5094573;28;20029;-74
2022/05/30 06:38:31;;;;;;;5.53;2.22;;;13.20;66.40;;;;;;5095486;28;20047;-73
2022/05/30 06:40:56;;;;;;;7.40;2.10;;;13.20;66.40;;;;;;5095458;28;20037;-74
2022/05/30 06:43:22;;;;;;;3.83;2.00;;;13.20;66.20;;;;;;5095372;28;20044;-74
2022/05/30 06:45:49;;;;;;;5.55;2.20;;;13.30;66.20;;;;;;5095325;28;20033;-74
2022/05/30 06:48:15;;;;;;;4.95;2.08;;;13.30;66.20;;;;;;5095258;28;20037;-74
2022/05/30 06:50:41;;;;;;;3.28;2.10;;;13.30;65.90;;;;;;5094231;28;20055;-74
2022/05/30 06:53:07;;;;;;;4.28;2.15;;;13.40;65.40;;;;;;5095208;28;20058;-73
2022/05/30 06:55:32;;;;;;;3.97;1.70;;;13.40;65.30;;;;;;5095162;28;20033;-73
2022/05/30 06:58:13;;;;;;;3.10;1.60;;;13.40;65.10;;;;;;5095195;28;20046;-73
2022/05/30 07:00:40;;;;;;;5.70;2.08;;;13.50;65.00;;;;;;5095115;28;20043;-73
2022/05/30 07:03:06;;;;;;;4.47;2.25;;;13.50;64.90;;;;;;5094830;28;20043;-74
2022/05/30 07:05:32;;;;;;;2.72;1.60;;;13.60;64.20;;;;;;5094956;28;20080;-74
2022/05/30 07:07:58;;;;;;;3.58;1.30;;;13.70;64.30;;;;;;5095015;28;20098;-74
2022/05/30 07:10:28;;;;;;;2.65;1.65;;;13.70;64.30;;;;;;5094787;28;20025;-74
2022/05/30 07:12:54;;;;;;;2.63;1.33;;;13.80;63.50;;;;;;5094839;28;20024;-74
2022/05/30 07:15:20;;;;;;;5.75;2.05;;;13.80;63.10;;;;;;5094769;28;20025;-75
2022/05/30 07:17:45;;;;;;;2.80;1.40;;;13.90;63.10;;;;;;5094690;28;20025;-73
2022/05/30 07:20:13;;;;;;;3.45;1.27;;;13.90;62.70;;;;;;5094771;28;20093;-74
2022/05/30 07:22:40;;;;;;;4.32;1.58;;;13.90;62.40;;;;;;5094589;28;20047;-74
2022/05/30 07:25:06;;;;;;;4.00;1.10;;;14.00;62.00;;;;;;5094562;28;20051;-74
2022/05/30 07:27:31;;;;;;;2.85;1.27;;;14.00;61.30;;;;;;5094624;28;20029;-74
2022/05/30 07:29:57;;;;;;;3.10;1.30;;;14.10;60.90;;;;;;5094295;28;20036;-74
2022/05/30 07:32:23;;;;;;;3.25;1.40;;;14.20;60.80;;;;;;5094321;28;20062;-74
2022/05/30 07:34:49;;;;;;;4.57;1.02;;;14.20;60.60;;;;;;5093414;28;20043;-74
2022/05/30 07:37:14;;;;;;;7.20;1.50;;;14.20;60.30;;;;;;5094236;28;20040;-74
2022/05/30 07:39:40;;;;;;;4.30;1.27;;;14.30;60.10;;;;;;5094235;28;20403;-74
2022/05/30 07:42:06;;;;;;;3.17;0.95;;;14.20;58.80;;;;;;5094197;28;20025;-74
2022/05/30 07:44:33;;;;;;;2.97;1.00;;;14.20;57.50;;;;;;5094238;28;20028;-74
2022/05/30 07:46:59;;;;;;;5.03;1.15;;;14.20;58.70;;;;;;5094085;28;20050;-74
2022/05/30 07:49:25;;;;;;;1.73;0.80;;;14.30;59.10;;;;;;5093743;28;20040;-74
2022/05/30 07:51:50;;;;;;;4.88;0.70;;;14.50;58.70;;;;;;5094028;28;20021;-74
2022/05/30 07:54:16;;;;;;;1.70;0.80;;;14.50;58.30;;;;;;5094114;28;20510;-74
2022/05/30 07:56:42;;;;;;;3.85;1.10;;;14.60;57.40;;;;;;5094026;28;20041;-75
2022/05/30 07:59:08;;;;;;;2.17;0.50;;;14.70;56.40;;;;;;5092786;28;20031;-75
2022/05/30 08:01:34;;;;;;;2.78;0.75;;;14.80;55.70;;;;;;5093804;28;20033;-74
2022/05/30 08:04:00;;;;;;;2.25;0.57;;;14.80;55.40;;;;;;5093849;28;20463;-74
2022/05/30 08:06:29;;;;;;;2.28;0.65;;;14.80;54.90;;;;;;5093768;28;20028;-74
2022/05/30 08:08:55;;;;;;;2.28;0.85;;;14.80;52.50;;;;;;5093628;28;20081;-74
2022/05/30 08:11:21;;;;;;;2.28;0.82;;;14.60;54.60;;;;;;5093654;28;20031;-74
2022/05/30 08:13:48;;;;;;;3.42;0.80;;;14.60;54.90;;;;;;5093651;28;20024;-74
2022/05/30 08:16:20;;;;;;;5.32;1.00;;;14.80;55.30;;;;;;5093598;28;20047;-74
2022/05/30 08:18:45;;;;;;;2.63;0.77;;;14.90;53.80;;;;;;5093636;28;20037;-74
2022/05/30 08:21:11;;;;;;;1.63;0.80;;;14.90;53.30;;;;;;5093514;28;20032;-74
2022/05/30 08:23:37;;;;;;;4.50;0.90;;;14.90;53.70;;;;;;5093603;28;20028;-74
2022/05/30 08:26:03;;;;;;;3.95;1.00;;;14.90;53.50;;;;;;5093465;28;20056;-74
2022/05/30 08:28:29;;;;;;;3.08;1.08;;;14.90;54.50;;;;;;5093266;28;20047;-74
2022/05/30 08:30:55;;;;;;;5.38;1.20;;;15.10;54.20;;;;;;5093376;28;20013;-74
2022/05/30 08:33:22;;;;;;;3.30;0.90;;;15.10;53.60;;;;;;5093451;28;20040;-74
2022/05/30 08:36:02;;;;;;;1.33;0.82;;;15.30;52.90;;;;;;5093382;28;20039;-74
2022/05/30 08:38:33;;;;;;;2.78;0.82;;;15.30;52.30;;;;;;5093437;28;20046;-74
2022/05/30 08:43:48;;;;;;;3.17;0.90;;;15.40;51.30;;;;;;5093320;28;20063;-75
2022/05/30 08:46:49;;;;;;;3.33;0.95;;;15.50;52.10;;;;;;5093224;28;20040;-75
2022/05/30 08:49:22;;;;;;;2.85;1.20;;;15.50;51.80;;;;;;5092997;28;20032;-74
2022/05/30 08:52:31;;;;;;;2.05;1.00;;;15.50;51.50;;;;;;5093172;28;20055;-75
2022/05/30 08:55:26;;;;;;;1.33;0.70;;;15.50;51.20;;;;;;5093316;28;20033;-75
2022/05/30 08:58:30;;;;;;;2.92;1.10;;;15.40;50.40;;;;;;5093138;28;20028;-75
2022/05/30 09:01:02;;;;;;;2.83;1.27;;;15.30;49.90;;;;;;5093075;28;20084;-75
2022/05/30 09:04:06;;;;;;;;;;;15.30;52.10;;;;;;5093507;28;20088;-75
2022/05/30 09:06:35;;;;;;;6.47;1.30;;;15.10;53.50;;;;;;5093250;28;19912;-75
2022/05/30 09:09:11;;;;;;;4.45;1.27;;;15.00;54.10;;;;;;5092924;28;20033;-75
2022/05/30 09:11:51;;;;;;;4.63;1.30;;;15.00;54.40;;;;;;5093025;28;20020;-74
2022/05/30 09:14:26;;;;;;;3.97;1.33;;;15.00;53.20;;;;;;5095695;28;20016;-75
2022/05/30 09:16:58;;;;;;;3.95;1.52;;;14.90;54.00;;;;;;5097097;28;20012;-74
2022/05/30 09:19:24;;;;;;;7.05;1.80;;;14.90;54.00;;;;;;5097034;28;20051;-75
2022/05/30 09:21:53;;;;;;;3.38;1.33;;;14.90;54.00;;;;;;5097106;28;20028;-74
2022/05/30 09:24:20;;;;;;;5.75;1.40;;;14.90;54.40;;;;;;5096880;28;20025;-75
2022/05/30 09:26:45;;;;;;;3.97;1.50;;;14.90;54.00;;;;;;5096835;28;20021;-74
2022/05/30 09:29:23;;;;;;;4.03;1.52;;;14.90;54.10;;;;;;5096670;28;20048;-74
2022/05/30 09:32:09;;;;;;;2.78;1.40;;;15.00;53.90;;;;;;5096735;28;20047;-74
2022/05/30 09:34:37;;;;;;;3.08;1.58;;;15.00;53.70;;;;;;5096867;28;20050;-74
2022/05/30 09:37:03;;;;;;;4.20;1.77;;;14.90;54.10;;;;;;5096617;28;20013;-74
2022/05/30 09:39:40;;;;;;;5.03;1.73;;;15.00;54.40;;;;;;5096587;28;20039;-74
2022/05/30 09:42:06;;;;;;;3.35;1.30;;;15.00;54.90;;;;;;5096740;28;20031;-75
2022/05/30 09:44:42;;;;;;;2.45;1.35;;;15.00;54.80;;;;;;5096505;28;20032;-75
2022/05/30 09:47:17;;;;;;;2.97;1.40;;;15.00;54.50;;;;;;5096489;28;20452;-75
2022/05/30 09:49:49;;;;;;;2.42;1.40;;;15.00;54.10;;;;;;5095119;28;20066;-75
2022/05/30 09:52:33;;;;;;;4.77;1.40;;;15.00;54.60;;;;;;5096414;28;20023;-74
2022/05/30 09:55:01;;;;;;;4.75;1.63;;;15.10;54.10;;;;;;5096274;28;20080;-74
2022/05/30 09:57:42;;;;;;;4.20;2.00;;;14.90;54.70;;;;;;5096303;28;20024;-74
2022/05/30 10:00:17;;;;;;;3.47;1.80;;;14.80;53.70;;;;;;5096331;28;20032;-74
2022/05/30 10:02:45;;;;;;;5.97;1.70;;;14.70;53.60;;;;;;5096307;28;20074;-75
2022/05/30 10:05:19;;;;;;;8.55;2.05;;;14.70;53.70;;;;;;5096096;28;20025;-74
2022/05/30 10:08:07;;;;;;;4.05;1.50;;;14.70;53.20;;;;;;5096259;28;20033;-75
2022/05/30 10:10:46;;;;;;;4.60;1.65;;;14.70;53.70;;;;;;5096105;28;20025;-75
2022/05/30 10:13:12;;;;;;;4.57;2.17;;;14.60;53.60;;;;;;5096010;28;20020;-75
2022/05/30 10:15:42;;;;;;;5.82;1.67;;;14.60;53.80;;;;;;5094956;28;20047;-75
2022/05/30 10:18:13;;;;;;;4.63;2.47;;;14.70;54.70;;;;;;5095903;28;20055;-75
2022/05/30 10:21:02;;;;;;;3.97;1.52;;;14.80;54.20;;;;;;5095864;28;20025;-75
2022/05/30 10:30:09;;;;;;;2.88;1.52;;;14.90;55.70;;;;;;5095683;28;19973;-74
2022/05/30 10:32:55;;;;;;;4.53;2.60;;;14.80;53.40;;;;;;5095671;28;20053;-74
2022/05/30 10:35:26;;;;;;;5.05;1.85;;;14.70;51.50;;;;;;5095591;28;20044;-75
2022/05/30 10:38:04;;;;;;;5.85;1.80;;;14.80;52.70;;;;;;5095545;28;20028;-74
2022/05/30 10:40:37;;;;;;;2.17;1.40;;;14.80;52.80;;;;;;5094492;28;20051;-75
2022/05/30 10:43:16;;;;;;;5.03;2.25;;;15.00;51.80;;;;;;5095463;28;20032;-75
2022/05/30 10:45:54;;;;;;;3.15;1.95;;;15.10;49.00;;;;;;5095419;28;20043;-74
2022/05/30 10:48:28;;;;;;;4.00;1.95;;;15.20;49.50;;;;;;5094332;28;20025;-75
2022/05/30 10:51:03;;;;;;;4.45;1.88;;;15.20;49.20;;;;;;5095137;28;20044;-75
2022/05/30 10:53:34;;;;;;;3.58;1.60;;;15.30;52.20;;;;;;5095267;28;20025;-75
2022/05/30 10:56:19;;;;;;;4.97;2.30;;;15.50;50.40;;;;;;5095120;28;20032;-75
2022/05/30 10:58:53;;;;;;;4.93;2.10;;;15.60;51.30;;;;;;5095311;28;20029;-74
2022/05/30 11:01:41;;;;;;;4.03;2.03;;;15.60;51.80;;;;;;5095239;28;20379;-75
2022/05/30 11:04:16;;;;;;;4.10;2.13;;;15.70;50.00;;;;;;5095169;28;20024;-75
2022/05/30 11:06:44;;;;;;;5.13;2.05;;;15.80;50.20;;;;;;5094998;28;20020;-75
2022/05/30 11:09:40;;;;;;;5.85;2.45;;;15.80;51.30;;;;;;5094936;28;20037;-75
2022/05/30 11:12:18;;;;;;;6.32;2.42;;;15.90;50.10;;;;;;5069508;28;20033;-75
2022/05/30 11:15:09;;;;;;;5.90;2.10;;;15.80;48.30;;;;;;5094888;28;20017;-75
2022/05/30 11:17:50;;;;;;;5.40;2.50;;;15.90;50.30;;;;;;5094897;28;20025;-75
2022/05/30 11:20:28;;;;;;;4.95;2.20;;;16.00;50.90;;;;;;5094879;28;20041;-75
2022/05/30 11:22:55;;;;;;;3.13;1.90;;;16.10;50.50;;;;;;5094685;28;20559;-75
2022/05/30 11:25:33;;;;;;;5.53;2.75;;;16.20;50.60;;;;;;5094592;28;20108;-74
2022/05/30 11:28:14;;;;;;;4.32;2.28;;;16.20;49.70;;;;;;5094574;28;20025;-75
2022/05/30 11:31:02;;;;;;;2.78;1.77;;;16.30;48.90;;;;;;5094611;28;20029;-75
2022/05/30 11:33:47;;;;;;;3.53;1.40;;;16.30;47.70;;;;;;5093403;28;20028;-75
2022/05/30 11:36:37;;;;;;;4.47;1.83;;;16.30;46.60;;;;;;5094054;28;20017;-75
2022/05/30 11:39:11;;;;;;;5.88;2.03;;;16.30;47.40;;;;;;5094476;28;20024;-74
2022/05/30 11:41:44;;;;;;;4.03;2.00;;;16.40;47.60;;;;;;5094422;28;20027;-75
2022/05/30 11:44:23;;;;;;;5.57;2.28;;;16.50;46.90;;;;;;5094234;28;20066;-75
2022/05/30 11:46:54;;;;;;;6.43;2.50;;;16.60;48.00;;;;;;5093175;28;20029;-74
2022/05/30 11:49:55;;;;;;;7.38;2.80;;;16.60;46.50;;;;;;5093959;28;20028;-74
2022/05/30 11:53:12;;;;;;;6.93;2.40;;;16.60;48.30;;;;;;5062783;28;20075;-74
2022/05/30 11:55:37;;;;;;;7.95;1.95;;;16.90;47.50;;;;;;5032234;28;20030;-74
2022/05/30 11:58:13;;;;;;;3.22;1.90;;;16.90;45.90;;;;;;5032345;28;20041;-74
2022/05/30 12:00:47;;;;;;;7.28;2.40;;;16.80;44.00;;;;;;5065256;28;20139;-74
2022/05/30 12:03:45;;;;;;;3.58;1.92;;;16.70;45.00;;;;;;5093892;28;20029;-75
2022/05/30 12:06:23;;;;;;;5.22;2.45;;;16.70;46.50;;;;;;5093949;28;20040;-74
2022/05/30 12:09:01;;;;;;;4.28;1.90;;;16.80;46.20;;;;;;5093652;28;20060;-74
2022/05/30 12:11:42;;;;;;;5.43;1.98;;;16.90;46.90;;;;;;5093686;28;20025;-74
2022/05/30 12:14:26;;;;;;;2.95;1.60;;;16.90;46.00;;;;;;5093631;28;20028;-74
2022/05/30 12:17:14;;;;;;;6.00;2.83;;;16.80;46.80;;;;;;5093734;28;20063;-74
2022/05/30 12:25:35;;;;;;;2.25;1.70;;;17.00;46.90;;;;;;5093716;28;20043;-74
2022/05/30 12:28:01;;;;;;;4.78;1.80;;;17.10;47.10;;;;;;5093353;28;20029;-74
2022/05/30 12:30:47;;;;;;;4.63;2.00;;;17.10;46.70;;;;;;5093340;28;20070;-74
2022/05/30 12:33:30;;;;;;;2.85;1.95;;;17.10;46.50;;;;;;5093538;28;20035;-74
2022/05/30 12:36:08;;;;;;;3.90;1.80;;;17.20;46.10;;;;;;5093314;28;20020;-74
2022/05/30 12:38:53;;;;;;;3.72;1.73;;;17.20;46.30;;;;;;5093327;28;20521;-74
2022/05/30 12:41:52;;;;;;;4.93;1.92;;;17.20;46.40;;;;;;5093179;28;20025;-75
2022/05/30 12:44:46;;;;;;;3.60;2.00;;;17.20;47.40;;;;;;5093514;28;20081;-74
2022/05/30 12:47:22;;;;;;;5.90;2.20;;;17.20;47.80;;;;;;5093178;28;20028;-74
2022/05/30 12:49:49;;;;;;;4.55;2.05;;;17.20;46.50;;;;;;5092594;28;20040;-74
2022/05/30 12:52:21;;;;;;;3.85;2.15;;;17.20;46.40;;;;;;5093179;28;20031;-74
2022/05/30 12:54:58;;;;;;;4.82;2.10;;;17.30;46.40;;;;;;5093139;28;20028;-74
2022/05/30 12:57:41;;;;;;;3.38;1.90;;;17.30;46.20;;;;;;5093131;28;20048;-74
2022/05/30 13:00:43;;;;;;;3.85;1.85;;;17.40;46.10;;;;;;5093200;28;20042;-74
2022/05/30 13:03:31;;;;;;;3.60;2.10;;;17.50;46.00;;;;;;5092953;28;20059;-74
2022/05/30 13:06:11;;;;;;;5.22;1.80;;;17.40;46.40;;;;;;5092914;28;20032;-74
2022/05/30 13:08:59;;;;;;;5.93;2.25;;;17.50;46.50;;;;;;5093159;28;20071;-74
2022/05/30 13:11:34;;;;;;;3.38;1.63;;;17.50;45.50;;;;;;5093235;28;20017;-74
2022/05/30 13:14:11;;;;;;;2.72;1.60;;;17.50;45.60;;;;;;5093015;28;20021;-74
2022/05/30 13:16:42;;;;;;;4.40;2.30;;;17.60;45.90;;;;;;5092944;28;20016;-74
2022/05/30 13:19:13;;;;;;;4.83;1.80;;;17.60;45.80;;;;;;5093106;28;20024;-74
2022/05/30 13:21:42;;;;;;;3.75;2.10;;;17.70;45.20;;;;;;5092944;28;20032;-75
2022/05/30 13:24:26;;;;;;;5.07;2.15;;;17.70;44.50;;;;;;5092223;28;20043;-75
2022/05/30 13:26:53;;;;;;;3.35;1.90;;;17.50;42.00;;;;;;5092876;28;20029;-75
2022/05/30 13:29:18;;;;;;;6.65;1.90;;;17.40;44.00;;;;;;5092729;28;20033;-74
2022/05/30 13:31:51;;;;;;;4.55;1.90;;;17.30;45.20;;;;;;5091874;28;20036;-75
2022/05/30 13:34:24;;;;;;;5.07;2.05;;;17.30;44.80;;;;;;5092941;28;20047;-74
2022/05/30 13:36:50;;;;;;;;;;;17.20;44.30;;;;;;5093236;28;20017;-74
2022/05/30 13:39:15;;;;;;;4.05;1.95;;;17.10;44.40;;;;;;5092793;28;19999;-74
2022/05/30 13:41:41;;;;;;;5.05;2.10;;;17.10;45.00;;;;;;5092744;28;20032;-74